Terminal Aerodrome Forecast
Issued by NWS

Home | Current Version | Previous Version | Text Only | Print | Product List | Glossary On
Versions: 1 2 3 4 5 6 7 8 9 10 11 12
724
FTUS45 KRIW 191738
TAFRKS
TAF
KRKS 191738Z 1918/2018 16010KT P6SM BKN250 WS015/22030KT
     FM191900 20011G20KT P6SM SCT050 BKN200
     FM200100 25010KT P6SM SCT050 BKN100
     FM200700 33008KT P6SM VCSH BKN050
     FM201000 34008KT 3SM -SN OVC022
     FM201500 05014G24KT 1SM -SN OVC008=

USA.gov is the U.S. government's official web portal to all federal, state and local government web resources and services.